Time;durP1;ratioP1;P1;durP2;ratioP2;P2;SDS_P1;SDS_P2;PMS_P1;PMS_P2;Temp;Humidity;BMP_temperature;BMP_pressure;BME280_temperature;BME280_humidity;BME280_pressure;Samples;Min_cycle;Max_cycle;Signal;HPM_P1;HPM_P2
2022/10/02 00:01:05;;;;;;;;;;;;;;;16.36;61.51;99622.09;4250448;33;19985;-80
2022/10/02 00:03:32;;;;;;;;;;;;;;;16.07;62.07;99618.03;4251675;33;19994;-80
2022/10/02 00:06:02;;;;;;;;;;;;;;;15.87;62.89;99635.63;4246472;33;19989;-80
2022/10/02 00:08:30;;;;;;;;;;;;;;;16.36;61.82;99629.94;4240340;33;20005;-80
2022/10/02 00:11:03;;;;;;;;;;;;;;;16.27;62.06;99626.53;4240234;33;20025;-81
2022/10/02 00:13:30;;;;;;;;;;;;;;;16.10;62.06;99649.34;4246821;33;19985;-81
2022/10/02 00:15:57;;;;;;;;;;;;;;;16.39;61.75;99640.34;4251339;33;19982;-81
2022/10/02 00:18:31;;;;;;;;;;;;;;;16.60;60.45;99655.78;4246002;33;20398;-81
2022/10/02 00:21:09;;;;;;;;;;;;;;;16.67;60.22;99649.59;4246387;33;20001;-80
2022/10/02 00:23:37;;;;;;;;;;;;;;;16.15;61.77;99652.78;4240592;33;19990;-81
2022/10/02 00:26:08;;;;;;;;;;;;;;;16.23;61.73;99650.94;4252116;33;19982;-81
2022/10/02 00:28:44;;;;;;;;;;;;;;;16.24;61.70;99642.25;4239822;33;19998;-81
2022/10/02 00:31:30;;;;;;;;;;;;;;;16.61;60.32;99652.28;4249006;33;20008;-81
2022/10/02 00:34:20;;;;;;;;;;;;;;;16.36;61.29;99651.69;4250552;33;20012;-81
2022/10/02 00:36:47;;;;;;;;;;;;;;;16.26;61.44;99665.72;4239865;33;19974;-81
2022/10/02 00:39:23;;;;;;;;;;;;;;;16.27;61.53;99673.56;4239856;33;20004;-81
2022/10/02 00:41:56;;;;;;;;;;;;;;;16.22;61.81;99672.72;4239878;33;20337;-81
2022/10/02 00:44:41;;;;;;;;;;;;;;;15.93;62.54;99661.69;4239954;33;20054;-81
2022/10/02 00:47:08;;;;;;;;;;;;;;;16.13;62.28;99670.19;4247282;33;19982;-81
2022/10/02 00:49:38;;;;;;;;;;;;;;;16.05;62.49;99672.03;4240706;33;20013;-81
2022/10/02 00:52:11;;;;;;;;;;;;;;;16.31;61.92;99678.75;4250503;33;20008;-81
2022/10/02 00:54:45;;;;;;;;;;;;;;;16.28;61.78;99675.28;4252881;33;19985;-81
2022/10/02 00:57:11;;;;;;;;;;;;;;;16.24;61.93;99672.69;4247768;33;20025;-81
2022/10/02 01:00:00;;;;;;;;;;;;;;;16.48;60.92;99666.37;4240098;33;20002;-81
2022/10/02 01:02:30;;;;;;;;;;;;;;;16.47;60.77;99670.75;4252393;33;19986;-81
2022/10/02 01:04:57;;;;;;;;;;;;;;;16.68;60.07;99673.97;4227522;33;20001;-81
2022/10/02 01:07:24;;;;;;;;;;;;;;;16.45;60.70;99667.25;4240083;33;20684;-81
2022/10/02 01:09:51;;;;;;;;;;;;;;;16.57;59.83;99671.50;4247697;33;19990;-80
2022/10/02 01:12:18;;;;;;;;;;;;;;;16.74;59.72;99674.78;4230749;33;19993;-80
2022/10/02 01:14:45;;;;;;;;;;;;;;;16.70;59.71;99673.09;4250283;33;20008;-80
2022/10/02 01:17:26;;;;;;;;;;;;;;;16.55;60.53;99688.94;4249924;33;20027;-81
2022/10/02 01:19:53;;;;;;;;;;;;;;;16.94;58.63;99686.78;4251475;33;20009;-81
2022/10/02 01:22:26;;;;;;;;;;;;;;;16.95;58.21;99699.84;4242983;33;20586;-80
2022/10/02 01:24:54;;;;;;;;;;;;;;;16.76;58.95;99697.47;4245702;33;19981;-81
2022/10/02 01:27:21;;;;;;;;;;;;;;;16.74;59.24;99697.44;4253799;33;19982;-81
2022/10/02 01:29:49;;;;;;;;;;;;;;;16.80;59.06;99693.94;4248980;33;19997;-80
2022/10/02 01:32:17;;;;;;;;;;;;;;;16.95;58.50;99714.69;4240567;33;19978;-81
2022/10/02 01:34:43;;;;;;;;;;;;;;;17.06;58.25;99723.25;4249866;33;19989;-81
2022/10/02 01:37:11;;;;;;;;;;;;;;;16.83;59.39;99720.03;4239723;33;20890;-81
2022/10/02 01:39:38;;;;;;;;;;;;;;;17.00;58.83;99733.78;4249833;33;19998;-81
2022/10/02 01:42:05;;;;;;;;;;;;;;;17.03;58.57;99723.28;4241495;33;20012;-81
2022/10/02 01:44:32;;;;;;;;;;;;;;;17.06;58.76;99731.09;4245782;33;20261;-81
2022/10/02 01:47:07;;;;;;;;;;;;;;;17.15;58.78;99738.81;4239875;33;20355;-81
2022/10/02 01:49:46;;;;;;;;;;;;;;;17.03;58.87;99738.97;4250047;33;20005;-81
2022/10/02 01:52:25;;;;;;;;;;;;;;;17.06;59.15;99749.37;4247347;33;20023;-80
2022/10/02 01:55:15;;;;;;;;;;;;;;;17.10;58.86;99756.34;4240507;33;20046;-80
2022/10/02 01:57:58;;;;;;;;;;;;;;;17.11;59.08;99767.66;4250207;33;20689;-81
2022/10/02 02:00:25;;;;;;;;;;;;;;;17.20;58.44;99778.88;4249807;33;20002;-81
2022/10/02 02:02:58;;;;;;;;;;;;;;;17.26;58.25;99777.06;4250713;33;19992;-81
2022/10/02 02:05:35;;;;;;;;;;;;;;;17.02;59.19;99770.38;4252555;33;20304;-81
2022/10/02 02:08:07;;;;;;;;;;;;;;;17.09;58.87;99778.13;4240810;33;19981;-81
2022/10/02 02:10:41;;;;;;;;;;;;;;;17.00;58.86;99791.31;4243524;33;19990;-81
2022/10/02 02:13:17;;;;;;;;;;;;;;;17.07;58.96;99792.09;4221871;33;20001;-78
2022/10/02 02:15:58;;;;;;;;;;;;;;;17.11;58.75;99789.44;4244201;33;20508;-81
2022/10/02 02:18:28;;;;;;;;;;;;;;;17.06;58.96;99796.47;4239473;33;19989;-80
2022/10/02 02:20:57;;;;;;;;;;;;;;;16.97;59.23;99791.34;4246157;33;20093;-80
2022/10/02 02:23:24;;;;;;;;;;;;;;;16.87;59.21;99787.09;4251772;33;20012;-81
2022/10/02 02:25:52;;;;;;;;;;;;;;;16.92;59.31;99787.91;4239306;33;20008;-80
2022/10/02 02:28:20;;;;;;;;;;;;;;;17.00;59.25;99796.53;4239376;33;19986;-81
2022/10/02 02:30:48;;;;;;;;;;;;;;;16.58;60.44;99793.44;4249973;33;19998;-81
2022/10/02 02:33:27;;;;;;;;;;;;;;;16.76;59.93;99796.81;4249917;33;20158;-81
2022/10/02 02:35:54;;;;;;;;;;;;;;;16.84;59.50;99800.19;4239670;33;20004;-81
2022/10/02 02:38:23;;;;;;;;;;;;;;;16.62;59.81;99794.28;4249914;33;20026;-81
2022/10/02 02:40:50;;;;;;;;;;;;;;;16.69;59.95;99791.59;4251082;33;20254;-80
2022/10/02 02:43:27;;;;;;;;;;;;;;;16.66;59.73;99796.84;4249552;33;20443;-81
2022/10/02 02:45:54;;;;;;;;;;;;;;;16.49;60.40;99803.97;3948381;33;10000764;-81
2022/10/02 02:48:24;;;;;;;;;;;;;;;16.63;60.17;99811.72;4242858;33;19986;-80
2022/10/02 02:50:56;;;;;;;;;;;;;;;16.64;60.08;99808.19;4251602;33;20045;-81
2022/10/02 02:53:34;;;;;;;;;;;;;;;16.61;60.37;99809.09;4252386;33;20000;-81
2022/10/02 02:56:00;;;;;;;;;;;;;;;16.71;59.77;99815.09;4252174;33;20008;-80
2022/10/02 02:58:32;;;;;;;;;;;;;;;16.33;61.38;99805.84;4252193;33;20008;-81
2022/10/02 03:00:59;;;;;;;;;;;;;;;16.65;59.73;99821.25;4252179;33;19995;-80
2022/10/02 03:03:25;;;;;;;;;;;;;;;16.34;60.95;99825.87;4252695;33;20000;-80
2022/10/02 03:05:56;;;;;;;;;;;;;;;16.58;60.23;99824.78;4253321;33;19993;-80
2022/10/02 03:08:23;;;;;;;;;;;;;;;16.72;60.12;99827.31;4252177;33;20028;-81
2022/10/02 03:10:50;;;;;;;;;;;;;;;16.37;61.13;99830.19;4246136;33;20119;-81
2022/10/02 03:13:22;;;;;;;;;;;;;;;16.33;60.94;99829.34;4249283;33;19997;-81
2022/10/02 03:16:12;;;;;;;;;;;;;;;16.64;60.07;99835.19;4249492;33;20326;-80
2022/10/02 03:18:43;;;;;;;;;;;;;;;16.13;61.94;99829.50;4240719;33;20012;-81
2022/10/02 03:21:17;;;;;;;;;;;;;;;16.66;59.97;99832.59;4245654;33;19989;-80
2022/10/02 03:24:03;;;;;;;;;;;;;;;16.59;60.07;99826.56;4249525;33;19982;-81
2022/10/02 03:26:36;;;;;;;;;;;;;;;16.33;61.34;99838.94;4251499;33;19997;-81
2022/10/02 03:29:04;;;;;;;;;;;;;;;16.48;60.64;99841.44;4239417;33;20028;-81
2022/10/02 03:31:31;;;;;;;;;;;;;;;16.44;61.01;99842.34;4241036;33;19992;-81
2022/10/02 03:33:58;;;;;;;;;;;;;;;16.58;60.06;99850.94;4243824;33;20052;-80
2022/10/02 03:36:25;;;;;;;;;;;;;;;16.64;60.11;99856.09;4249346;33;19990;-81
2022/10/02 03:38:53;;;;;;;;;;;;;;;16.67;60.06;99856.09;4249115;33;20004;-80
2022/10/02 03:41:40;;;;;;;;;;;;;;;16.52;60.53;99857.06;4247220;33;19985;-81
2022/10/02 03:44:07;;;;;;;;;;;;;;;16.59;60.57;99864.84;4250485;33;19985;-81
2022/10/02 03:46:33;;;;;;;;;;;;;;;16.54;60.86;99864.91;4238496;33;20001;-81
2022/10/02 03:49:02;;;;;;;;;;;;;;;16.77;59.80;99867.34;4240346;33;19997;-81
2022/10/02 03:51:29;;;;;;;;;;;;;;;16.87;59.56;99868.12;4244974;33;19986;-81
2022/10/02 03:53:56;;;;;;;;;;;;;;;16.62;60.28;99876.16;4249069;33;20010;-81
2022/10/02 03:56:33;;;;;;;;;;;;;;;16.83;60.02;99871.66;4246234;33;20008;-81
2022/10/02 03:59:00;;;;;;;;;;;;;;;16.84;59.64;99873.41;4250589;33;19985;-81
2022/10/02 04:01:38;;;;;;;;;;;;;;;16.76;59.86;99872.63;4242648;33;20420;-80
2022/10/02 04:04:07;;;;;;;;;;;;;;;16.86;59.60;99871.66;4241078;33;20014;-80
2022/10/02 04:06:34;;;;;;;;;;;;;;;16.92;59.46;99872.44;4238433;33;19985;-81
2022/10/02 04:09:07;;;;;;;;;;;;;;;16.79;60.25;99880.44;4247032;33;19986;-81
2022/10/02 04:11:42;;;;;;;;;;;;;;;16.71;60.24;99877.84;4243566;33;19996;-81
2022/10/02 04:14:17;;;;;;;;;;;;;;;16.91;59.66;99875.97;4243644;33;19990;-81
2022/10/02 04:16:44;;;;;;;;;;;;;;;16.80;59.91;99880.41;4239324;33;20008;-81
2022/10/02 04:19:14;;;;;;;;;;;;;;;16.85;59.78;99890.84;4241940;33;19990;-81
2022/10/02 04:21:50;;;;;;;;;;;;;;;16.92;59.49;99900.34;4246039;33;20005;-81
2022/10/02 04:24:41;;;;;;;;;;;;;;;16.92;59.53;99892.50;4240040;33;20016;-81
2022/10/02 04:27:18;;;;;;;;;;;;;;;16.83;59.74;99895.19;4249763;33;20349;-81
2022/10/02 04:29:55;;;;;;;;;;;;;;;17.00;59.21;99895.91;4250124;33;19990;-81
2022/10/02 04:32:25;;;;;;;;;;;;;;;16.77;59.71;99908.31;4251033;33;19990;-79
2022/10/02 04:34:53;;;;;;;;;;;;;;;16.85;59.65;99907.38;4250066;33;20010;-81
2022/10/02 04:37:30;;;;;;;;;;;;;;;16.61;60.42;99905.78;4250436;33;19986;-81
2022/10/02 04:40:17;;;;;;;;;;;;;;;16.87;59.03;99909.97;4240880;33;20000;-81
2022/10/02 04:42:58;;;;;;;;;;;;;;;16.90;59.14;99925.63;4249692;33;20382;-81
2022/10/02 04:45:43;;;;;;;;;;;;;;;16.86;59.11;99934.41;4243334;33;20011;-81
2022/10/02 04:48:25;;;;;;;;;;;;;;;16.68;59.91;99938.84;4239982;33;20407;-81
2022/10/02 04:51:01;;;;;;;;;;;;;;;16.82;59.53;99943.16;4242377;33;20000;-81
2022/10/02 04:53:46;;;;;;;;;;;;;;;16.65;60.27;99941.47;4243675;33;20416;-81
2022/10/02 04:56:16;;;;;;;;;;;;;;;16.85;59.70;99953.59;4234601;33;20009;-82
2022/10/02 04:58:56;;;;;;;;;;;;;;;16.73;60.10;99955.37;4227756;33;20052;-82
2022/10/02 05:01:42;;;;;;;;;;;;;;;16.90;59.62;99972.69;4221657;33;20042;-81
2022/10/02 05:04:28;;;;;;;;;;;;;;;16.87;59.44;99968.34;4228949;33;20653;-81
2022/10/02 05:07:13;;;;;;;;;;;;;;;16.94;58.93;99963.94;4242146;33;20005;-81
2022/10/02 05:09:52;;;;;;;;;;;;;;;16.90;59.34;99972.69;4225775;33;19990;-82
2022/10/02 05:12:24;;;;;;;;;;;;;;;16.88;59.42;99977.06;4225656;33;19994;-82
2022/10/02 05:15:03;;;;;;;;;;;;;;;16.93;59.38;99983.13;4236344;33;19992;-82
2022/10/02 05:17:48;;;;;;;;;;;;;;;16.87;59.42;99983.19;4235560;33;20013;-82
2022/10/02 05:20:34;;;;;;;;;;;;;;;16.86;59.71;99987.56;4231209;33;19990;-81
2022/10/02 05:23:03;;;;;;;;;;;;;;;17.07;59.70;99986.53;4239386;33;19994;-83
2022/10/02 05:25:47;;;;;;;;;;;;;;;17.02;59.56;99977.84;4239471;33;20334;-83
2022/10/02 05:28:14;;;;;;;;;;;;;;;16.96;59.64;99975.28;4241660;33;19990;-81
2022/10/02 05:30:44;;;;;;;;;;;;;;;17.09;59.39;99979.53;4239683;33;20049;-82
2022/10/02 05:33:15;;;;;;;;;;;;;;;16.89;60.16;99986.66;4238327;33;20012;-82
2022/10/02 05:35:49;;;;;;;;;;;;;;;16.94;60.24;99990.09;4231914;33;19986;-81
2022/10/02 05:38:41;;;;;;;;;;;;;;;17.03;59.60;99984.78;4230539;33;20332;-82
2022/10/02 05:41:12;;;;;;;;;;;;;;;16.99;59.74;99988.31;4235740;33;19982;-80
2022/10/02 05:43:49;;;;;;;;;;;;;;;17.08;59.47;99993.50;4232210;33;19990;-80
2022/10/02 05:46:20;;;;;;;;;;;;;;;17.17;59.04;99993.41;4225355;33;20041;-80
2022/10/02 05:48:50;;;;;;;;;;;;;;;17.29;58.18;99996.78;4239905;33;20505;-81
2022/10/02 05:51:19;;;;;;;;;;;;;;;16.62;60.29;100001.59;4229845;33;19993;-83
2022/10/02 05:53:56;;;;;;;;;;;;;;;17.13;58.59;100002.19;4248714;33;20009;-83
2022/10/02 05:56:23;;;;;;;;;;;;;;;16.82;59.83;100005.91;4240844;33;19991;-83
2022/10/02 05:58:52;;;;;;;;;;;;;;;17.23;58.62;100017.78;4244297;33;20040;-82
2022/10/02 06:01:29;;;;;;;;;;;;;;;17.01;58.93;100017.97;4247533;33;19997;-82
2022/10/02 06:04:01;;;;;;;;;;;;;;;16.88;58.68;100016.28;4251849;33;20865;-82
2022/10/02 06:06:33;;;;;;;;;;;;;;;17.00;58.49;100021.44;4252993;33;19981;-80
2022/10/02 06:09:02;;;;;;;;;;;;;;;17.25;57.22;100016.87;4250744;33;19989;-81
2022/10/02 06:11:34;;;;;;;;;;;;;;;17.24;57.66;100027.37;4251986;33;20077;-82
2022/10/02 06:14:06;;;;;;;;;;;;;;;17.30;57.84;100029.94;4253731;33;20016;-82
2022/10/02 06:16:39;;;;;;;;;;;;;;;17.23;58.22;100033.47;4267806;33;19993;-82
2022/10/02 06:19:09;;;;;;;;;;;;;;;17.01;58.82;100031.03;4261313;33;19997;-83
2022/10/02 06:21:45;;;;;;;;;;;;;;;17.16;57.79;100038.75;4263622;33;19985;-81
2022/10/02 06:24:16;;;;;;;;;;;;;;;17.10;57.92;100045.78;4254252;33;19989;-80
2022/10/02 06:26:45;;;;;;;;;;;;;;;17.20;58.23;100050.94;4265602;33;20021;-80
2022/10/02 06:29:23;;;;;;;;;;;;;;;17.41;57.40;100049.03;4253625;33;20059;-80
2022/10/02 06:31:57;;;;;;;;;;;;;;;17.45;57.17;100055.97;4254486;33;19996;-80
2022/10/02 06:34:24;;;;;;;;;;;;;;;17.23;57.73;100067.47;4251190;33;20438;-80
2022/10/02 06:37:20;;;;;;;;;;;;;;;17.42;57.39;100062.12;4262900;33;19997;-81
2022/10/02 06:39:50;;;;;;;;;;;;;;;16.41;60.79;100061.84;4257252;33;20008;-81
2022/10/02 06:42:17;;;;;;;;;;;;;;;16.77;61.14;100070.41;4255095;33;20001;-80
2022/10/02 06:44:53;;;;;;;;;;;;;;;16.91;61.15;100068.56;4263576;33;20050;-80
2022/10/02 06:47:26;;;;;;;;;;;;;;;17.06;59.71;100078.06;4263888;33;19995;-80
2022/10/02 06:50:00;;;;;;;;;;;;;;;17.44;58.33;100080.41;4265720;33;20423;-79
2022/10/02 06:52:27;;;;;;;;;;;;;;;17.18;59.61;100083.22;4262634;33;20004;-79
2022/10/02 06:55:17;;;;;;;;;;;;;;;17.59;57.94;100093.38;4259570;33;20034;-82
2022/10/02 06:58:23;;;;;;;;;;;;;;;18.13;55.51;100101.63;4263333;33;19992;-79
2022/10/02 07:01:10;;;;;;;;;;;;;;;17.52;57.78;100102.16;4236663;33;20004;-80
2022/10/02 07:03:40;;;;;;;;;;;;;;;18.39;55.96;100102.22;4244939;33;20008;-80
2022/10/02 07:06:12;;;;;;;;;;;;;;;18.72;55.62;100106.16;4251930;33;20007;-80
2022/10/02 07:08:55;;;;;;;;;;;;;;;19.15;53.54;100113.50;4253517;33;19969;-77
2022/10/02 07:11:54;;;;;;;;;;;;;;;19.45;53.28;100118.25;4247632;33;19997;-79
2022/10/02 07:14:27;;;;;;;;;;;;;;;19.46;51.94;100114.75;4262062;33;20360;-79
2022/10/02 07:16:54;;;;;;;;;;;;;;;19.55;52.97;100118.13;4259420;33;19990;-79
2022/10/02 07:19:27;;;;;;;;;;;;;;;19.04;53.36;100117.12;4264746;33;20001;-79
2022/10/02 07:21:54;;;;;;;;;;;;;;;19.48;54.40;100117.34;4259009;33;20046;-79
2022/10/02 07:24:40;;;;;;;;;;;;;;;19.36;52.72;100113.16;4252781;33;20012;-80
2022/10/02 07:27:14;;;;;;;;;;;;;;;19.92;50.97;100103.50;4256960;33;20009;-80
2022/10/02 07:29:41;;;;;;;;;;;;;;;20.48;51.23;100112.94;4263298;33;19996;-80
2022/10/02 07:32:24;;;;;;;;;;;;;;;20.36;49.62;100104.44;4265954;33;19993;-79
2022/10/02 07:34:54;;;;;;;;;;;;;;;20.37;49.30;100116.66;4253972;33;20012;-80
2022/10/02 07:37:26;;;;;;;;;;;;;;;20.67;48.58;100109.06;4265193;33;20011;-81
2022/10/02 07:40:08;;;;;;;;;;;;;;;20.72;50.11;100106.38;4264706;33;19978;-79
2022/10/02 07:42:45;;;;;;;;;;;;;;;21.09;50.28;100116.94;4252141;33;20478;-81
2022/10/02 07:45:18;;;;;;;;;;;;;;;20.94;48.00;100125.19;4242409;33;20272;-79
2022/10/02 07:47:48;;;;;;;;;;;;;;;21.21;47.35;100111.37;4235604;33;789214;-82
2022/10/02 07:50:38;;;;;;;;;;;;;;;20.95;48.78;100119.03;4266499;33;20359;-80
2022/10/02 07:53:08;;;;;;;;;;;;;;;21.16;48.33;100118.53;4246140;33;22258;-81
2022/10/02 07:55:42;;;;;;;;;;;;;;;21.41;47.88;100123.25;4263096;33;20000;-81
2022/10/02 07:58:14;;;;;;;;;;;;;;;21.31;46.15;100123.47;4256570;33;19981;-81
2022/10/02 08:00:44;;;;;;;;;;;;;;;21.31;46.31;100127.84;4263553;33;19982;-81
2022/10/02 08:03:12;;;;;;;;;;;;;;;21.20;45.90;100136.00;4266912;33;20041;-81
2022/10/02 08:05:43;;;;;;;;;;;;;;;21.00;46.97;100138.22;4255091;33;19989;-79
2022/10/02 08:08:14;;;;;;;;;;;;;;;21.03;45.59;100146.06;4244035;33;20033;-81
2022/10/02 08:10:42;;;;;;;;;;;;;;;20.55;46.82;100146.16;4263119;33;19996;-80
2022/10/02 08:13:11;;;;;;;;;;;;;;;20.29;48.19;100139.59;4267039;33;20340;-80
2022/10/02 08:15:38;;;;;;;;;;;;;;;20.48;46.30;100147.12;4266642;33;19999;-81
2022/10/02 08:18:31;;;;;;;;;;;;;;;20.21;47.99;100146.78;4240927;33;19989;-80
2022/10/02 08:21:06;;;;;;;;;;;;;;;20.25;47.14;100137.94;4258614;33;20845;-81
2022/10/02 08:23:48;;;;;;;;;;;;;;;20.06;47.24;100139.16;4243952;33;20032;-80
2022/10/02 08:26:29;;;;;;;;;;;;;;;19.83;48.91;100140.44;4261961;33;20313;-78
2022/10/02 08:29:04;;;;;;;;;;;;;;;20.30;47.20;100141.34;4259737;33;19993;-81
2022/10/02 08:31:31;;;;;;;;;;;;;;;20.26;48.71;100150.19;4254515;33;20037;-80
2022/10/02 08:34:31;;;;;;;;;;;;;;;19.27;51.41;100160.53;4261460;33;20005;-82
2022/10/02 08:37:13;;;;;;;;;;;;;;;20.19;48.83;100153.81;4256243;33;20004;-81
2022/10/02 08:39:55;;;;;;;;;;;;;;;20.56;48.00;100163.69;4264276;33;19997;-82
2022/10/02 08:42:31;;;;;;;;;;;;;;;19.84;49.80;100157.91;4255065;33;20000;-82
2022/10/02 08:45:16;;;;;;;;;;;;;;;19.89;50.11;100161.34;4261930;33;20002;-81
2022/10/02 08:47:53;;;;;;;;;;;;;;;20.44;47.92;100144.56;4268896;33;20007;-81
2022/10/02 08:50:39;;;;;;;;;;;;;;;20.33;48.60;100157.06;4266693;33;20089;-81
2022/10/02 08:53:18;;;;;;;;;;;;;;;20.26;48.82;100152.84;4263598;33;19996;-82
2022/10/02 08:56:04;;;;;;;;;;;;;;;20.38;48.50;100160.47;4260383;33;19990;-81
2022/10/02 08:58:42;;;;;;;;;;;;;;;20.53;46.66;100163.75;4266987;33;20464;-82
2022/10/02 09:01:15;;;;;;;;;;;;;;;20.38;48.36;100160.47;4222337;33;20027;-78
2022/10/02 09:03:58;;;;;;;;;;;;;;;20.70;48.33;100161.63;4259448;33;19992;-78
2022/10/02 09:06:30;;;;;;;;;;;;;;;20.50;47.96;100155.87;4262387;33;20335;-80
2022/10/02 09:09:01;;;;;;;;;;;;;;;20.69;46.55;100146.75;4264194;33;20320;-77
2022/10/02 09:11:47;;;;;;;;;;;;;;;20.63;46.75;100155.63;4264020;33;20291;-81
2022/10/02 09:14:31;;;;;;;;;;;;;;;20.30;47.62;100156.25;4261947;33;19989;-81
2022/10/02 09:17:17;;;;;;;;;;;;;;;20.00;49.87;100163.78;4257973;33;20001;-80
2022/10/02 09:20:03;;;;;;;;;;;;;;;20.00;48.74;100157.66;4259149;33;20005;-84
2022/10/02 09:22:32;;;;;;;;;;;;;;;20.41;46.70;100163.03;4268116;33;20281;-86
2022/10/02 09:25:19;;;;;;;;;;;;;;;20.07;49.28;100159.28;4259159;33;20324;-87
2022/10/02 09:28:04;;;;;;;;;;;;;;;20.04;48.76;100164.59;4246948;33;20001;-85
2022/10/02 09:30:50;;;;;;;;;;;;;;;19.66;48.16;100163.50;4255875;33;20421;-86
2022/10/02 09:33:35;;;;;;;;;;;;;;;19.80;47.78;100151.00;4254156;33;19998;-88
2022/10/02 09:36:12;;;;;;;;;;;;;;;19.68;48.14;100143.31;3981478;33;10007865;-85
2022/10/02 09:38:47;;;;;;;;;;;;;;;19.85;45.78;100143.91;4104707;33;5000940;-84
2022/10/02 09:41:34;;;;;;;;;;;;;;;19.89;46.71;100140.34;4253834;33;19989;-86
2022/10/02 09:44:27;;;;;;;;;;;;;;;20.17;46.97;100145.09;4261606;33;19993;-87
2022/10/02 09:47:05;;;;;;;;;;;;;;;20.36;45.88;100141.25;4260167;33;20379;-87
2022/10/02 09:49:41;;;;;;;;;;;;;;;20.32;44.75;100139.53;2188534;33;20012007;-82
2022/10/02 09:52:08;;;;;;;;;;;;;;;20.59;45.52;100140.81;4276900;33;20331;-86
2022/10/02 09:54:47;;;;;;;;;;;;;;;20.63;42.37;100131.09;4280919;33;20731;-84
2022/10/02 09:57:34;;;;;;;;;;;;;;;20.69;42.85;100128.34;4281753;33;20399;-88
2022/10/02 10:00:15;;;;;;;;;;;;;;;20.50;45.21;100126.94;4281890;33;20006;-86
2022/10/02 10:02:58;;;;;;;;;;;;;;;20.24;44.62;100130.94;4279452;33;20067;-86
2022/10/02 10:05:33;;;;;;;;;;;;;;;20.71;42.59;100128.28;4254684;33;20042;-83
2022/10/02 10:08:00;;;;;;;;;;;;;;;20.90;42.38;100112.09;4261725;33;20019;-87
2022/10/02 10:10:50;;;;;;;;;;;;;;;21.09;41.43;100107.28;4282379;33;20375;-83
2022/10/02 10:13:31;;;;;;;;;;;;;;;21.19;43.08;100107.94;4272304;33;20007;-83
2022/10/02 10:16:18;;;;;;;;;;;;;;;21.12;42.94;100111.59;4267529;33;20054;-86
2022/10/02 10:18:48;;;;;;;;;;;;;;;21.56;41.43;100107.09;4277129;33;19997;-89
2022/10/02 10:21:30;;;;;;;;;;;;;;;21.13;44.73;100113.34;4278384;33;20015;-84
2022/10/02 10:24:15;;;;;;;;;;;;;;;21.25;41.26;100107.81;4282332;33;20030;-84
2022/10/02 10:26:54;;;;;;;;;;;;;;;21.31;41.04;100110.28;4280977;33;19993;-90
2022/10/02 10:29:30;;;;;;;;;;;;;;;21.32;41.23;100109.38;4280200;33;19997;-89
2022/10/02 10:31:57;;;;;;;;;;;;;;;20.85;43.36;100103.44;4278106;33;20057;-87
2022/10/02 10:34:34;;;;;;;;;;;;;;;21.05;41.29;100104.75;4273936;33;20003;-86
2022/10/02 10:39:58;;;;;;;;;;;;;;;21.25;41.76;100102.53;4275815;33;19985;-89
2022/10/02 10:42:34;;;;;;;;;;;;;;;21.07;42.24;100100.31;4261789;33;20008;-89
2022/10/02 10:45:31;;;;;;;;;;;;;;;21.29;41.88;100104.19;4263529;33;20016;-90
2022/10/02 10:48:02;;;;;;;;;;;;;;;21.24;42.53;100095.53;4252339;33;19999;-87
2022/10/02 10:50:38;;;;;;;;;;;;;;;21.06;43.90;100102.09;4265607;33;20001;-83
2022/10/02 10:53:09;;;;;;;;;;;;;;;20.86;43.84;100099.88;4242606;33;20314;-88
2022/10/02 10:55:44;;;;;;;;;;;;;;;20.53;45.38;100106.75;4263632;33;20015;-87
2022/10/02 10:58:35;;;;;;;;;;;;;;;20.40;45.96;100106.09;4250110;33;20317;-85
2022/10/02 11:01:22;;;;;;;;;;;;;;;20.52;44.17;100099.75;4244090;33;19998;-87
2022/10/02 11:03:52;;;;;;;;;;;;;;;20.61;45.26;100106.56;4247723;33;20672;-91
2022/10/02 11:06:19;;;;;;;;;;;;;;;20.76;43.20;100103.62;4266122;33;20374;-87
2022/10/02 11:09:04;;;;;;;;;;;;;;;20.77;43.14;100115.91;4265657;33;20003;-85
2022/10/02 11:11:37;;;;;;;;;;;;;;;20.68;43.82;100116.09;4269898;33;20012;-84
2022/10/02 11:14:25;;;;;;;;;;;;;;;20.72;42.58;100109.00;4256000;33;19997;-83
2022/10/02 11:17:02;;;;;;;;;;;;;;;20.51;44.55;100113.78;4265814;33;19986;-84
2022/10/02 11:19:41;;;;;;;;;;;;;;;20.44;44.63;100127.94;4243090;33;19997;-83
2022/10/02 11:22:08;;;;;;;;;;;;;;;20.56;43.51;100116.34;4261962;33;20899;-84
2022/10/02 11:24:39;;;;;;;;;;;;;;;20.32;44.90;100113.25;4264279;33;20049;-84
2022/10/02 11:27:17;;;;;;;;;;;;;;;20.27;44.25;100115.13;4269491;33;20008;-85
2022/10/02 11:29:56;;;;;;;;;;;;;;;20.18;45.79;100115.28;4271585;33;19981;-85
2022/10/02 11:32:27;;;;;;;;;;;;;;;19.85;46.88;100101.87;4240598;33;20012;-84
2022/10/02 11:34:57;;;;;;;;;;;;;;;20.31;44.87;100106.28;4264956;33;19993;-84
2022/10/02 11:37:36;;;;;;;;;;;;;;;20.05;46.54;100092.78;4252438;33;19997;-84
2022/10/02 11:40:22;;;;;;;;;;;;;;;19.71;48.79;100093.34;4265940;33;20320;-84
2022/10/02 11:43:10;;;;;;;;;;;;;;;19.91;48.48;100083.38;4270182;33;19996;-84
2022/10/02 11:45:54;;;;;;;;;;;;;;;19.90;49.82;100083.41;4252973;33;20803;-85
2022/10/02 11:48:37;;;;;;;;;;;;;;;20.17;47.75;100103.06;4248047;33;20029;-84
2022/10/02 11:51:08;;;;;;;;;;;;;;;20.07;47.41;100093.59;4270438;33;19982;-85
2022/10/02 11:53:44;;;;;;;;;;;;;;;20.28;47.78;100084.44;4263401;33;19996;-86
2022/10/02 11:56:21;;;;;;;;;;;;;;;20.77;44.58;100078.19;4252147;33;20005;-86
2022/10/02 11:58:51;;;;;;;;;;;;;;;20.78;45.31;100082.56;4251808;33;20257;-85
2022/10/02 12:01:31;;;;;;;;;;;;;;;20.90;46.35;100090.19;4265316;33;20029;-89
2022/10/02 12:04:17;;;;;;;;;;;;;;;20.59;47.81;100087.34;4246028;33;19993;-87
2022/10/02 12:06:50;;;;;;;;;;;;;;;20.97;47.93;100085.66;4265502;33;19993;-83
2022/10/02 12:09:26;;;;;;;;;;;;;;;20.20;50.59;100098.59;4271392;33;20003;-90
2022/10/02 12:12:05;;;;;;;;;;;;;;;20.74;48.75;100102.81;4268003;33;20025;-88
2022/10/02 12:14:34;;;;;;;;;;;;;;;20.60;48.82;100096.97;4261569;33;20012;-87
2022/10/02 12:17:11;;;;;;;;;;;;;;;20.50;48.01;100095.38;4266942;33;19981;-86
2022/10/02 12:19:39;;;;;;;;;;;;;;;20.65;47.10;100100.38;4265047;33;20106;-88
2022/10/02 12:28:24;;;;;;;;;;;;;;;20.37;50.10;100079.84;4268250;33;20687;-84
2022/10/02 12:30:54;;;;;;;;;;;;;;;20.41;49.52;100075.41;4119025;33;20002;-87
2022/10/02 12:33:22;;;;;;;;;;;;;;;20.48;49.59;100068.25;4206170;34;20022;-85
2022/10/02 12:35:48;;;;;;;;;;;;;;;20.72;49.13;100059.88;4243072;33;19988;-86
2022/10/02 12:38:25;;;;;;;;;;;;;;;20.59;49.02;100059.28;4281364;33;20040;-83
2022/10/02 12:40:57;;;;;;;;;;;;;;;20.45;49.22;100056.03;4281732;33;19985;-83
2022/10/02 12:43:43;;;;;;;;;;;;;;;19.81;52.68;100047.63;4268140;33;19969;-85
2022/10/02 12:46:20;;;;;;;;;;;;;;;20.36;49.50;100043.97;4280911;33;20410;-85
2022/10/02 12:48:59;;;;;;;;;;;;;;;20.35;50.01;100047.47;4266005;33;19997;-86
2022/10/02 12:51:28;;;;;;;;;;;;;;;20.14;51.73;100045.28;4281015;33;19989;-88
2022/10/02 12:54:14;;;;;;;;;;;;;;;20.16;51.31;100031.19;4258520;33;20812;-85
2022/10/02 12:56:59;;;;;;;;;;;;;;;19.71;52.73;100030.31;4274205;33;20003;-83
2022/10/02 12:59:26;;;;;;;;;;;;;;;19.85;52.29;100038.84;4280391;33;19989;-86
2022/10/02 13:01:53;;;;;;;;;;;;;;;20.19;51.06;100032.91;4280823;33;19989;-84
2022/10/02 13:04:38;;;;;;;;;;;;;;;19.47;54.32;100027.22;4280983;33;19993;-87
2022/10/02 13:07:18;;;;;;;;;;;;;;;20.01;51.82;100017.53;4278316;33;19981;-83
2022/10/02 13:09:46;;;;;;;;;;;;;;;20.41;50.35;100018.41;4280537;33;19989;-82
2022/10/02 13:12:13;;;;;;;;;;;;;;;20.36;50.59;100014.19;4268080;33;20007;-83
2022/10/02 13:15:00;;;;;;;;;;;;;;;20.46;50.99;100007.81;4263435;33;19981;-85
2022/10/02 13:17:46;;;;;;;;;;;;;;;19.94;52.61;100007.13;4267958;33;20008;-85
2022/10/02 13:20:36;;;;;;;;;;;;;;;20.17;51.98;100008.44;4281624;33;20007;-86
2022/10/02 13:23:12;;;;;;;;;;;;;;;20.50;49.72;100001.56;4282154;33;20435;-86
2022/10/02 13:25:58;;;;;;;;;;;;;;;20.45;49.94;100003.44;4286122;33;19985;-82
2022/10/02 13:28:24;;;;;;;;;;;;;;;20.13;52.99;99999.75;4293534;33;20019;-82
2022/10/02 13:31:15;;;;;;;;;;;;;;;19.76;53.16;100004.84;4294995;33;19984;-87